Terminal Aerodrome Forecast
Issued by NWS

Home | Current Version | Previous Version | Text Only | Print | Product List | Glossary On
Versions: 1 2 3 4 5 6 7 8 9 10 11 12 13 14 15 16 17 18 19 20 21 22 23 24 25
000
FTUS43 KDLH 251400 AAA
TAFHYR
TAF AMD
KHYR 251404Z 2514/2612 14006KT P6SM BKN018 OVC025
     FM251700 17009G14KT P6SM BKN025
     FM252100 20005KT P6SM VCSH BKN028 OVC040
      TEMPO 2521/2523 5SM TSRA BR OVC015CB
     FM260600 21006KT P6SM SCT015=

USA.gov is the U.S. government's official web portal to all federal, state and local government web resources and services.